Wetterdaten der Wetterstation 36433 Bad Salzungen

Letzte Wetterlage 20.12.2014 05:00
Wetterdiagramm
Tabellarische Darstellung
Datum Temperatur Windchill Feuchte Luftdruck Windrichtung Windstärke Niederschlag
20.12.2014 05:00 4,9 °C 4,9 °C 89 % 1018,9 hPa 315 0.5 0,00 mm
20.12.2014 04:45 4,9 °C 4,9 °C 89 % 1018,8 hPa 135 0.0 0,00 mm
20.12.2014 04:30 4,8 °C 4,8 °C 89 % 1018,9 hPa 280 0.0 0,00 mm
20.12.2014 04:10 4,8 °C 4,8 °C 90 % 1019,0 hPa 225 0.0 0,00 mm
20.12.2014 04:00 4,8 °C 4,8 °C 90 % 1019,0 hPa 260 0.0 0,00 mm
20.12.2014 03:45 4,7 °C 4,7 °C 89 % 1018,9 hPa 307 0.0 0,00 mm
20.12.2014 03:30 4,9 °C 4,9 °C 89 % 1019,0 hPa 339 0.0 0,00 mm
20.12.2014 03:10 4,8 °C 4,8 °C 90 % 1018,8 hPa 270 0.6 0,00 mm
20.12.2014 03:00 4,7 °C 4,7 °C 89 % 1018,9 hPa 229 0.0 0,00 mm
20.12.2014 02:45 4,8 °C 4,8 °C 89 % 1018,8 hPa 50 0.0 0,00 mm
20.12.2014 02:30 4,9 °C 4,9 °C 89 % 1018,8 hPa 309 0.0 0,00 mm
20.12.2014 02:10 4,6 °C 4,6 °C 90 % 1018,7 hPa 180 0.6 0,00 mm
20.12.2014 02:00 4,6 °C 4,6 °C 90 % 1018,6 hPa 290 0.0 0,00 mm
20.12.2014 01:45 4,8 °C 4,8 °C 90 % 1018,5 hPa 279 0.0 0,00 mm
20.12.2014 01:30 4,6 °C 4,6 °C 91 % 1018,3 hPa 179 0.5 0,00 mm
20.12.2014 01:10 4,8 °C 4,8 °C 91 % 1018,1 hPa 270 0.0 0,00 mm
20.12.2014 01:00 4,9 °C 4,9 °C 91 % 1018,2 hPa 183 0.0 0,00 mm
20.12.2014 00:45 4,9 °C 4,9 °C 91 % 1018,2 hPa 284 0.5 0,00 mm
20.12.2014 00:30 4,8 °C 4,8 °C 91 % 1017,9 hPa 257 0.5 0,00 mm
20.12.2014 00:10 4,8 °C 4,8 °C 91 % 1018,0 hPa 315 0.0 0,00 mm
20.12.2014 00:00 4,8 °C 4,8 °C 91 % 1017,9 hPa 230 0.0 0,00 mm
Empfehlen Sie wetter.com
| Mehr
Neue Wetterwarnung

Neue Niederschlagsmeldung
Neue Meldung
Regen Liveticker
    sehr starker Regen/Gewitter
    starker Regen/Gewitter
    mäßiger bis starker Regen
    mäßiger Regen
    leichter bis mäßiger Regen
    kein Regen